Stavropol', Russia
Current Conditions -  °F | °C
As of 10:30 AM on Saturday 01 Nov 2014 (Local Time) from URMT Reporting Station
Overcast Overcast  
Wind Chill: 48°   Ceiling: 900
Heat Index: 48°   Visibility: 6mi
Dew Point: 46°   Wind: 2mph
Humidity: 93%   Direction: 150°SSE
Pressure: 29.83"   Gusts: NA
Location:  45.04°N, 41.97°E
Report Text: URMT 010730Z 15001MPS 9999 BKN009 OVC100 09/08 Q1010 NOSIG RMKQFE717 SC060
Loading
Personal Weather Stations






























Interactive Weather Map
Tropical Storm Tracking
New forecast layout! Learn more

10-Day Weather Forecast

Advertisements
Track Severe Weather on mobile